Time;durP1;ratioP1;P1;durP2;ratioP2;P2;SDS_P1;SDS_P2;PMS_P1;PMS_P2;Temp;Humidity;BMP_temperature;BMP_pressure;BME280_temperature;BME280_humidity;BME280_pressure;Samples;Min_cycle;Max_cycle;Signal;HPM_P1;HPM_P2
2022/01/12 00:00:17;;;;;;;33.95;15.07;;;-5.40;99.90;;;;;;5052068;28;20035;-82
2022/01/12 00:02:44;;;;;;;35.45;15.52;;;-5.40;99.90;;;;;;5051963;28;20029;-82
2022/01/12 00:05:10;;;;;;;31.87;14.37;;;-5.40;99.90;;;;;;5034070;28;20446;-83
2022/01/12 00:07:36;;;;;;;33.47;14.82;;;-5.40;99.90;;;;;;5033827;28;20424;-82
2022/01/12 00:10:03;;;;;;;27.98;13.75;;;-5.40;99.90;;;;;;5067150;28;20013;-82
2022/01/12 00:12:28;;;;;;;34.03;16.02;;;-5.40;99.90;;;;;;5043037;28;20505;-83
2022/01/12 00:14:54;;;;;;;29.08;13.75;;;-5.40;99.90;;;;;;5040803;28;20397;-82
2022/01/12 00:17:20;;;;;;;27.95;13.45;;;-5.40;99.90;;;;;;5033886;28;20024;-82
2022/01/12 00:19:45;;;;;;;27.20;13.38;;;-5.40;99.90;;;;;;5018261;28;20029;-82
2022/01/12 00:22:12;;;;;;;25.85;13.45;;;-5.40;99.90;;;;;;5014084;28;20368;-82
2022/01/12 00:25:05;;;;;;;26.73;12.50;;;-5.30;99.90;;;;;;5013991;28;20479;-82
2022/01/12 00:35:34;;;;;;;29.10;12.97;;;-5.40;99.90;;;;;;5051271;28;20121;-82
2022/01/12 00:38:00;;;;;;;24.63;13.55;;;-5.40;99.90;;;;;;5033452;28;20487;-83
2022/01/12 00:40:26;;;;;;;27.38;14.63;;;-5.40;99.90;;;;;;5033351;28;20627;-84
2022/01/12 00:42:52;;;;;;;26.67;12.43;;;-5.40;99.90;;;;;;5033507;28;20049;-83
2022/01/12 00:45:19;;;;;;;27.65;13.65;;;-5.40;99.90;;;;;;5033205;28;20029;-84
2022/01/12 00:47:44;;;;;;;24.60;13.05;;;-5.50;99.90;;;;;;5051260;28;20017;-83
2022/01/12 00:50:10;;;;;;;27.83;13.23;;;-5.50;99.90;;;;;;5051387;28;20490;-83
2022/01/12 00:52:36;;;;;;;29.38;13.10;;;-5.50;99.90;;;;;;5033270;28;20021;-83
2022/01/12 00:55:03;;;;;;;34.45;16.92;;;-5.60;99.90;;;;;;5033166;28;20033;-82
2022/01/12 00:57:30;;;;;;;37.10;15.95;;;-5.60;99.90;;;;;;5031949;28;20498;-82
2022/01/12 00:59:55;;;;;;;31.13;15.13;;;-5.60;99.90;;;;;;5031166;28;20472;-82
2022/01/12 01:02:21;;;;;;;33.67;14.32;;;-5.60;99.90;;;;;;5031290;28;20083;-82
2022/01/12 01:04:46;;;;;;;37.70;18.65;;;-5.50;99.90;;;;;;5031127;28;20022;-82
2022/01/12 01:07:12;;;;;;;34.42;15.65;;;-5.50;99.90;;;;;;5031256;28;20030;-82
2022/01/12 01:09:43;;;;;;;38.67;17.02;;;-5.50;99.90;;;;;;5031088;28;20021;-82
2022/01/12 01:12:09;;;;;;;39.55;18.40;;;-5.50;99.90;;;;;;5031238;28;20460;-84
2022/01/12 01:25:44;;;;;;;38.25;16.55;;;-5.60;99.90;;;;;;5035426;28;20032;-85
2022/01/12 01:28:12;;;;;;;38.45;19.63;;;-5.60;99.90;;;;;;5035106;28;20032;-83
2022/01/12 01:30:40;;;;;;;36.07;18.07;;;-5.60;99.90;;;;;;5017096;28;20022;-85
2022/01/12 01:33:08;;;;;;;40.47;19.13;;;-5.60;99.90;;;;;;5017130;28;20029;-83
2022/01/12 01:35:37;;;;;;;40.17;17.95;;;-5.60;99.90;;;;;;5034850;28;20490;-83
2022/01/12 01:38:04;;;;;;;39.37;18.70;;;-5.60;99.90;;;;;;5017119;28;20018;-83
2022/01/12 01:40:32;;;;;;;38.00;16.88;;;-5.60;99.90;;;;;;5034710;28;20477;-83
2022/01/12 01:54:05;;;;;;;37.78;16.73;;;-5.50;99.90;;;;;;5028047;28;20453;-84
2022/01/12 01:56:31;;;;;;;46.90;20.38;;;-5.50;99.90;;;;;;5034434;28;20033;-81
2022/01/12 01:58:57;;;;;;;42.55;18.08;;;-5.70;99.90;;;;;;5016618;28;20049;-82
2022/01/12 02:01:23;;;;;;;37.30;20.33;;;-5.70;99.90;;;;;;5034476;28;20426;-82
2022/01/12 02:03:49;;;;;;;37.30;17.75;;;-5.60;99.90;;;;;;5016870;28;20056;-82
2022/01/12 02:06:15;;;;;;;36.20;16.83;;;-5.70;99.90;;;;;;5049690;28;20049;-82
2022/01/12 02:08:41;;;;;;;34.00;15.43;;;-5.70;99.90;;;;;;5034273;28;20025;-82
2022/01/12 02:11:07;;;;;;;34.07;15.70;;;-5.80;99.90;;;;;;5034332;28;20036;-82
2022/01/12 02:13:33;;;;;;;30.43;14.03;;;-5.80;99.90;;;;;;5034120;28;20076;-83
2022/01/12 02:15:58;;;;;;;33.50;15.95;;;-5.80;99.90;;;;;;5016377;28;20037;-82
2022/01/12 02:40:42;;;;;;;32.10;14.80;;;-5.70;99.90;;;;;;5033915;28;20064;-84
2022/01/12 02:43:40;;;;;;;45.28;17.52;;;-5.70;99.90;;;;;;5016011;28;20113;-83
2022/01/12 02:53:38;;;;;;;35.90;16.13;;;-5.70;99.90;;;;;;5033686;28;20098;-81
2022/01/12 02:54:22;;;;;;;34.97;16.02;;;-5.60;99.90;;;;;;5033333;28;20471;-82
2022/01/12 02:56:47;;;;;;;39.40;16.13;;;-5.70;99.90;;;;;;5015560;28;20057;-81
2022/01/12 02:59:13;;;;;;;28.88;16.63;;;-5.70;99.90;;;;;;5033304;28;20060;-82
2022/01/12 03:02:17;;;;;;;31.73;16.13;;;-5.70;99.90;;;;;;5033274;28;20018;-82
2022/01/12 03:04:27;;;;;;;35.40;16.52;;;-5.60;99.90;;;;;;5032898;28;20080;-82
2022/01/12 03:06:53;;;;;;;37.90;18.65;;;-5.60;99.90;;;;;;5033215;28;20514;-82
2022/01/12 03:09:19;;;;;;;42.17;15.63;;;-5.60;99.90;;;;;;5033171;28;20028;-82
2022/01/12 03:11:44;;;;;;;32.78;15.75;;;-5.60;99.90;;;;;;5015295;28;20075;-82
2022/01/12 03:14:10;;;;;;;30.73;13.67;;;-5.60;99.90;;;;;;5015207;28;20103;-82
2022/01/12 03:16:36;;;;;;;36.27;14.13;;;-5.60;99.90;;;;;;5033056;28;20026;-84
2022/01/12 03:19:03;;;;;;;29.02;14.82;;;-5.60;99.90;;;;;;5032987;28;20407;-83
2022/01/12 03:21:32;;;;;;;32.20;14.60;;;-5.60;99.90;;;;;;5014962;28;20029;-83
2022/01/12 03:23:59;;;;;;;27.38;16.58;;;-5.60;99.90;;;;;;5015056;28;20026;-83
2022/01/12 03:26:28;;;;;;;31.13;15.48;;;-5.60;99.90;;;;;;5032798;28;20523;-83
2022/01/12 03:28:54;;;;;;;30.65;15.05;;;-5.60;99.90;;;;;;5015102;28;20021;-83
2022/01/12 03:31:29;;;;;;;30.93;14.03;;;-5.60;99.90;;;;;;5032721;28;20037;-83
2022/01/12 04:09:24;;;;;;;30.40;13.90;;;-5.80;99.90;;;;;;5032070;28;20629;-84
2022/01/12 04:11:50;;;;;;;34.10;14.83;;;-5.80;99.90;;;;;;5032035;28;20025;-83
2022/01/12 04:14:15;;;;;;;32.33;15.00;;;-5.80;99.90;;;;;;5014054;28;20041;-83
2022/01/12 04:16:41;;;;;;;28.60;13.57;;;-5.70;99.90;;;;;;5032097;28;20067;-82
2022/01/12 04:19:07;;;;;;;29.60;14.20;;;-5.70;99.90;;;;;;5051798;28;20400;-82
2022/01/12 04:21:40;;;;;;;25.63;14.60;;;-5.60;99.90;;;;;;5066989;28;20056;-82
2022/01/12 04:24:06;;;;;;;31.80;16.60;;;-5.60;99.90;;;;;;5033893;28;20426;-82
2022/01/12 04:26:31;;;;;;;26.70;14.47;;;-5.60;99.90;;;;;;5033649;28;20032;-82
2022/01/12 04:28:57;;;;;;;27.17;14.93;;;-5.70;99.90;;;;;;5033603;28;20021;-82
2022/01/12 04:31:22;;;;;;;37.05;16.30;;;-5.70;99.90;;;;;;5066926;28;20032;-83
2022/01/12 04:33:48;;;;;;;31.60;16.17;;;-5.80;99.90;;;;;;5051450;28;20037;-83
2022/01/12 04:36:15;;;;;;;32.15;13.88;;;-5.80;99.90;;;;;;5051454;28;20096;-83
2022/01/12 04:38:43;;;;;;;27.25;13.77;;;-5.80;99.90;;;;;;5033517;28;20017;-82
2022/01/12 04:41:10;;;;;;;29.13;13.93;;;-5.80;99.90;;;;;;5019998;28;20502;-82
2022/01/12 04:43:39;;;;;;;27.67;12.53;;;-5.70;99.90;;;;;;5031494;28;20528;-82
2022/01/12 04:48:36;;;;;;;34.10;16.23;;;-5.80;99.90;;;;;;5031589;28;20145;-84
2022/01/12 04:51:01;;;;;;;30.83;14.07;;;-5.80;99.90;;;;;;5013333;28;20085;-83
2022/01/12 04:53:27;;;;;;;38.33;16.63;;;-5.80;99.90;;;;;;5031159;28;20034;-82
2022/01/12 04:55:53;;;;;;;34.70;16.27;;;-5.80;99.90;;;;;;5029293;28;20434;-83
2022/01/12 04:58:20;;;;;;;39.57;16.23;;;-5.80;99.90;;;;;;5031306;28;20025;-82
2022/01/12 05:00:48;;;;;;;36.53;15.67;;;-5.80;99.90;;;;;;5029818;28;20470;-84
2022/01/12 05:14:14;;;;;;;36.23;17.27;;;-5.90;99.90;;;;;;4998755;28;20088;-83
2022/01/12 05:16:39;;;;;;;34.83;15.53;;;-5.90;99.90;;;;;;5031075;28;20498;-83
2022/01/12 05:19:05;;;;;;;33.83;15.83;;;-5.90;99.90;;;;;;5029883;28;20017;-83
2022/01/12 05:21:31;;;;;;;34.10;15.27;;;-5.90;99.90;;;;;;5029719;28;20451;-82
2022/01/12 05:24:00;;;;;;;26.98;13.32;;;-5.80;99.90;;;;;;5029773;28;20030;-83
2022/01/12 05:26:25;;;;;;;28.83;12.68;;;-5.80;99.90;;;;;;5031076;28;20034;-84
2022/01/12 05:28:51;;;;;;;35.67;15.17;;;-5.80;99.90;;;;;;5029705;28;20025;-82
2022/01/12 05:31:17;;;;;;;31.92;15.77;;;-5.80;99.90;;;;;;5031013;28;20025;-83
2022/01/12 05:33:47;;;;;;;31.87;14.27;;;-5.70;99.90;;;;;;5029569;28;20026;-83
2022/01/12 05:36:15;;;;;;;26.48;13.65;;;-5.70;99.90;;;;;;5031051;28;20029;-83
2022/01/12 05:38:40;;;;;;;31.07;13.37;;;-5.80;99.90;;;;;;5030853;28;20045;-83
2022/01/12 05:41:06;;;;;;;28.75;14.35;;;-5.80;99.90;;;;;;5029602;28;20056;-84
2022/01/12 05:43:33;;;;;;;30.00;13.77;;;-5.80;99.90;;;;;;5025711;28;20068;-83
2022/01/12 05:46:10;;;;;;;32.95;14.23;;;-5.80;99.90;;;;;;5035718;28;20387;-83
2022/01/12 05:51:25;;;;;;;32.95;14.57;;;-5.90;99.90;;;;;;5034955;28;20153;-83
2022/01/12 05:53:50;;;;;;;30.40;14.38;;;-5.80;99.90;;;;;;5034358;28;20119;-83
2022/01/12 05:56:16;;;;;;;40.57;15.47;;;-5.80;99.90;;;;;;5017141;28;20028;-82
2022/01/12 05:58:42;;;;;;;31.20;13.57;;;-5.80;99.90;;;;;;5016460;28;20119;-83
2022/01/12 06:01:07;;;;;;;32.43;14.87;;;-5.90;99.90;;;;;;5017486;28;20014;-81
2022/01/12 06:03:33;;;;;;;32.47;16.17;;;-5.90;99.90;;;;;;5017679;28;20036;-83
2022/01/12 06:05:59;;;;;;;33.28;15.82;;;-5.80;99.90;;;;;;5019147;28;20029;-84
2022/01/12 06:08:24;;;;;;;47.42;20.67;;;-5.80;99.90;;;;;;5037999;28;20494;-84
2022/01/12 06:10:50;;;;;;;50.40;24.17;;;-5.70;99.90;;;;;;5027130;28;20022;-80
2022/01/12 06:13:15;;;;;;;36.47;18.98;;;-5.80;99.90;;;;;;5024371;28;20113;-72
2022/01/12 06:15:41;;;;;;;30.05;15.80;;;-5.80;99.90;;;;;;5040114;28;20067;-71
2022/01/12 06:18:06;;;;;;;37.83;17.63;;;-5.80;99.90;;;;;;5040578;28;20021;-71
2022/01/12 06:20:32;;;;;;;48.43;20.57;;;-5.80;99.90;;;;;;5041489;28;20029;-71
2022/01/12 06:22:58;;;;;;;52.20;20.85;;;-5.70;99.90;;;;;;5040305;28;20463;-71
2022/01/12 06:25:23;;;;;;;39.33;18.17;;;-5.70;99.90;;;;;;5043172;28;20138;-71
2022/01/12 06:27:56;;;;;;;38.42;16.83;;;-5.60;99.90;;;;;;5019221;28;20132;-72
2022/01/12 06:33:00;;;;;;;33.05;15.43;;;-5.50;99.90;;;;;;5038129;28;20383;-70
2022/01/12 06:35:26;;;;;;;34.95;15.75;;;-5.50;99.90;;;;;;5035729;28;20029;-70
2022/01/12 06:37:53;;;;;;;35.10;16.25;;;-5.50;99.90;;;;;;5039332;28;20018;-71
2022/01/12 06:40:19;;;;;;;35.08;16.20;;;-5.50;99.90;;;;;;5040085;28;20013;-70
2022/01/12 06:42:46;;;;;;;32.42;14.50;;;-5.50;99.90;;;;;;5038662;28;20037;-71
2022/01/12 06:45:11;;;;;;;33.78;15.93;;;-5.40;99.90;;;;;;5039547;28;20029;-71
2022/01/12 06:47:38;;;;;;;32.72;17.40;;;-5.40;99.90;;;;;;5023722;28;20099;-72
2022/01/12 06:50:05;;;;;;;46.28;20.90;;;-5.40;99.90;;;;;;5039187;28;20504;-71
2022/01/12 06:52:30;;;;;;;37.63;18.35;;;-5.40;99.90;;;;;;5035635;28;20014;-71
2022/01/12 06:54:56;;;;;;;36.65;18.02;;;-5.40;99.90;;;;;;5037792;28;20044;-71
2022/01/12 06:57:22;;;;;;;33.63;13.43;;;-5.40;99.90;;;;;;5038622;28;20475;-72
2022/01/12 06:59:47;;;;;;;35.28;16.67;;;-5.40;99.90;;;;;;5037704;28;20044;-71
2022/01/12 07:02:13;;;;;;;30.17;13.50;;;-5.50;99.90;;;;;;5019014;28;20407;-72
2022/01/12 07:04:39;;;;;;;31.87;14.80;;;-5.40;99.90;;;;;;5020193;28;20443;-71
2022/01/12 07:07:04;;;;;;;36.33;16.50;;;-5.40;99.90;;;;;;5037153;28;20645;-72
2022/01/12 07:09:30;;;;;;;39.42;16.80;;;-5.40;99.90;;;;;;5038415;28;20033;-72
2022/01/12 07:11:56;;;;;;;35.53;19.00;;;-5.40;99.90;;;;;;5041041;28;20029;-71
2022/01/12 07:14:22;;;;;;;41.45;17.95;;;-5.50;99.90;;;;;;5038513;28;20156;-71
2022/01/12 07:16:47;;;;;;;32.55;14.75;;;-5.40;99.90;;;;;;5037369;28;20014;-71
2022/01/12 07:19:13;;;;;;;32.42;15.30;;;-5.40;99.90;;;;;;5038737;28;20022;-71
2022/01/12 07:21:39;;;;;;;32.30;14.93;;;-5.40;99.90;;;;;;5037128;28;20013;-71
2022/01/12 07:24:05;;;;;;;29.65;16.80;;;-5.30;99.90;;;;;;5021105;28;20107;-71
2022/01/12 07:26:31;;;;;;;34.65;15.73;;;-5.30;99.90;;;;;;5039373;28;20053;-71
2022/01/12 07:28:56;;;;;;;32.33;14.93;;;-5.30;99.90;;;;;;5038441;28;20053;-72
2022/01/12 07:31:23;;;;;;;31.40;15.73;;;-5.20;99.90;;;;;;5038441;28;20021;-71
2022/01/12 07:33:50;;;;;;;35.95;15.27;;;-5.20;99.90;;;;;;5023218;28;20040;-72
2022/01/12 07:36:16;;;;;;;26.35;14.65;;;-5.10;99.90;;;;;;5019847;28;20088;-71
2022/01/12 07:38:42;;;;;;;34.15;16.52;;;-5.10;99.90;;;;;;5037792;28;20075;-71
2022/01/12 07:41:08;;;;;;;40.58;17.08;;;-5.10;99.90;;;;;;5037391;28;20025;-71
2022/01/12 07:43:33;;;;;;;33.20;15.68;;;-5.10;99.90;;;;;;5038886;28;20071;-71
2022/01/12 07:45:59;;;;;;;32.95;14.45;;;-5.00;99.90;;;;;;5038508;28;20436;-71
2022/01/12 07:48:25;;;;;;;30.88;15.93;;;-5.00;99.90;;;;;;5038687;28;20489;-71
2022/01/12 07:50:50;;;;;;;32.97;16.98;;;-5.00;99.90;;;;;;5020334;28;20241;-71
2022/01/12 07:53:16;;;;;;;38.53;16.25;;;-5.00;99.90;;;;;;5019807;28;20033;-72
2022/01/12 07:55:42;;;;;;;40.67;21.13;;;-5.00;99.50;;;;;;5038046;28;20032;-71
2022/01/12 07:58:07;;;;;;;41.22;20.00;;;-5.00;98.50;;;;;;5036750;28;20014;-72
2022/01/12 08:00:33;;;;;;;46.13;22.92;;;-5.10;97.70;;;;;;5020137;28;20121;-71
2022/01/12 08:02:59;;;;;;;41.60;20.10;;;-5.10;98.40;;;;;;5038270;28;20049;-71
2022/01/12 08:05:24;;;;;;;48.47;20.02;;;-5.10;98.40;;;;;;5038088;28;20398;-71
2022/01/12 08:07:52;;;;;;;43.35;18.92;;;-5.10;99.30;;;;;;5037969;28;20026;-72
2022/01/12 08:10:18;;;;;;;32.38;18.48;;;-5.10;98.00;;;;;;5020612;28;20601;-71
2022/01/12 08:12:44;;;;;;;35.47;16.42;;;-5.20;94.90;;;;;;5040415;28;20122;-73
2022/01/12 08:15:10;;;;;;;29.92;14.27;;;-5.20;95.00;;;;;;5038224;28;20091;-71
2022/01/12 08:17:37;;;;;;;39.97;18.43;;;-5.20;93.20;;;;;;5020430;28;20029;-72
2022/01/12 08:20:05;;;;;;;38.47;18.02;;;-5.30;93.90;;;;;;5037731;28;20071;-71
2022/01/12 08:22:31;;;;;;;43.55;17.65;;;-5.30;95.90;;;;;;5019914;28;20025;-71
2022/01/12 08:24:56;;;;;;;36.83;18.63;;;-5.30;96.80;;;;;;5039611;28;20060;-71
2022/01/12 08:27:22;;;;;;;32.92;15.48;;;-5.30;97.20;;;;;;5037631;28;20018;-72
2022/01/12 08:29:58;;;;;;;20.10;10.02;;;-5.30;96.20;;;;;;5039446;28;20017;-71
2022/01/12 08:32:24;;;;;;;27.45;13.60;;;-5.30;93.40;;;;;;5020186;28;20033;-71
2022/01/12 08:34:49;;;;;;;31.65;15.45;;;-5.30;91.10;;;;;;5037757;28;20062;-71
2022/01/12 08:37:15;;;;;;;32.65;14.20;;;-5.30;92.80;;;;;;5019842;28;20009;-71
2022/01/12 08:39:40;;;;;;;30.83;14.43;;;-5.20;94.20;;;;;;5019017;28;20494;-71
2022/01/12 08:42:06;;;;;;;36.78;16.60;;;-5.20;93.80;;;;;;5040042;28;20029;-71
2022/01/12 08:44:34;;;;;;;40.90;17.20;;;-5.10;94.20;;;;;;5034739;28;20022;-71
2022/01/12 08:47:01;;;;;;;27.52;12.98;;;-5.10;95.10;;;;;;5036955;28;20106;-71
2022/01/12 08:49:26;;;;;;;25.48;13.02;;;-5.10;93.10;;;;;;5037761;28;20034;-71
2022/01/12 08:51:52;;;;;;;28.67;13.68;;;-5.20;88.30;;;;;;5019877;28;20021;-72
2022/01/12 08:54:18;;;;;;;26.35;13.43;;;-5.20;88.20;;;;;;5037274;28;20026;-71
2022/01/12 08:56:44;;;;;;;25.50;12.15;;;-5.10;88.10;;;;;;5021219;28;20135;-71
2022/01/12 08:59:10;;;;;;;29.20;13.98;;;-5.00;88.80;;;;;;5035095;28;20112;-72
2022/01/12 09:01:36;;;;;;;31.33;13.15;;;-4.90;88.50;;;;;;5021342;28;20032;-72
2022/01/12 09:04:01;;;;;;;44.55;21.42;;;-4.80;87.70;;;;;;5037036;28;20025;-72
2022/01/12 09:06:27;;;;;;;29.63;17.27;;;-4.80;88.10;;;;;;5038678;28;20021;-71
2022/01/12 09:08:52;;;;;;;30.67;18.00;;;-4.90;88.70;;;;;;5036279;28;20068;-72
2022/01/12 09:11:18;;;;;;;34.72;15.98;;;-4.80;89.20;;;;;;5018612;28;20021;-71
2022/01/12 09:13:44;;;;;;;26.38;14.40;;;-4.80;88.80;;;;;;5019129;28;20029;-71
2022/01/12 09:16:10;;;;;;;27.85;13.50;;;-4.70;89.00;;;;;;5037354;28;20393;-71
2022/01/12 09:18:38;;;;;;;25.15;14.40;;;-4.70;88.80;;;;;;5019663;28;20115;-72
2022/01/12 09:21:04;;;;;;;28.67;12.60;;;-4.70;85.70;;;;;;5039932;28;20052;-71
2022/01/12 09:23:30;;;;;;;20.17;11.40;;;-4.70;84.70;;;;;;5042071;28;20108;-72
2022/01/12 09:25:56;;;;;;;25.27;11.85;;;-4.70;84.60;;;;;;5020825;28;20125;-71
2022/01/12 09:28:21;;;;;;;24.90;12.32;;;-4.60;85.90;;;;;;5025977;28;20013;-73
2022/01/12 09:30:47;;;;;;;27.58;14.02;;;-4.50;86.00;;;;;;5037492;28;20032;-71
2022/01/12 09:33:13;;;;;;;22.92;12.15;;;-4.50;85.60;;;;;;5033703;28;20018;-72
2022/01/12 09:35:38;;;;;;;23.02;12.18;;;-4.60;84.90;;;;;;5038343;28;20029;-71
2022/01/12 09:38:04;;;;;;;23.98;11.80;;;-4.60;84.50;;;;;;5021338;28;20022;-72
2022/01/12 09:40:29;;;;;;;23.83;12.93;;;-4.50;84.60;;;;;;5024534;28;20017;-71
2022/01/12 09:42:57;;;;;;;28.58;13.95;;;-4.40;84.90;;;;;;5044206;28;20033;-72
2022/01/12 09:45:25;;;;;;;25.60;12.88;;;-4.30;84.60;;;;;;5043675;28;20025;-71
2022/01/12 09:47:51;;;;;;;28.55;14.63;;;-4.20;84.60;;;;;;5029285;28;20032;-71
2022/01/12 09:50:21;;;;;;;35.30;16.88;;;-4.30;83.60;;;;;;5042423;28;20017;-71
2022/01/12 09:52:47;;;;;;;28.77;15.80;;;-4.40;83.10;;;;;;5045627;28;20500;-71
2022/01/12 09:55:13;;;;;;;34.58;15.23;;;-4.40;84.50;;;;;;5041805;28;20102;-73
2022/01/12 09:57:38;;;;;;;28.73;15.15;;;-4.40;84.30;;;;;;5028703;28;20026;-73
2022/01/12 10:00:06;;;;;;;31.77;17.65;;;-4.40;83.60;;;;;;5041130;28;20026;-71
2022/01/12 10:02:32;;;;;;;30.90;16.98;;;-4.50;82.10;;;;;;5057242;28;20048;-71
2022/01/12 10:05:06;;;;;;;32.50;15.00;;;-4.60;82.70;;;;;;5042189;28;20021;-71
2022/01/12 10:07:32;;;;;;;30.42;16.35;;;-4.70;82.20;;;;;;5024463;28;20025;-71
2022/01/12 10:10:04;;;;;;;28.95;13.57;;;-4.70;81.60;;;;;;5046644;28;20105;-71
2022/01/12 10:12:30;;;;;;;29.38;12.60;;;-4.70;82.10;;;;;;5027287;28;20545;-71
2022/01/12 10:15:09;;;;;;;24.35;12.38;;;-4.70;82.20;;;;;;5042651;28;20540;-71
2022/01/12 10:17:41;;;;;;;21.55;11.77;;;-4.70;80.20;;;;;;5042499;28;20021;-71
2022/01/12 10:20:10;;;;;;;27.98;12.32;;;-4.70;80.10;;;;;;5041055;28;20395;-71
2022/01/12 10:22:36;;;;;;;29.92;12.65;;;-4.60;80.30;;;;;;5027133;28;20112;-72
2022/01/12 10:25:15;;;;;;;28.80;12.18;;;-4.50;81.80;;;;;;5025123;28;20026;-71
2022/01/12 10:27:41;;;;;;;23.55;12.60;;;-4.50;81.10;;;;;;5040599;28;20025;-71
2022/01/12 10:30:07;;;;;;;27.17;12.95;;;-4.50;80.20;;;;;;5024012;28;20029;-71
2022/01/12 10:32:33;;;;;;;21.42;10.63;;;-4.40;80.10;;;;;;5037734;28;20443;-71
2022/01/12 10:35:00;;;;;;;25.38;12.35;;;-4.30;78.90;;;;;;5053585;28;20116;-71
2022/01/12 10:37:26;;;;;;;33.83;15.52;;;-4.20;79.10;;;;;;5053527;28;20060;-71
2022/01/12 10:39:54;;;;;;;20.55;11.82;;;-4.10;77.20;;;;;;5053505;28;20074;-71
2022/01/12 10:42:26;;;;;;;292.98;123.53;;;-4.10;77.10;;;;;;5035736;28;20017;-71
2022/01/12 10:44:54;;;;;;;216.03;92.30;;;-4.10;77.20;;;;;;5030836;28;20075;-71
2022/01/12 10:47:25;;;;;;;33.80;18.15;;;-4.10;77.70;;;;;;5033771;28;20032;-71
2022/01/12 10:49:56;;;;;;;23.90;13.27;;;-4.00;77.70;;;;;;5033440;28;20075;-72
2022/01/12 10:52:25;;;;;;;27.90;12.48;;;-3.90;77.30;;;;;;5032403;28;20021;-72
2022/01/12 10:54:55;;;;;;;33.10;13.45;;;-3.90;77.60;;;;;;5033365;28;20057;-71
2022/01/12 10:57:29;;;;;;;32.42;14.73;;;-3.80;78.20;;;;;;5032280;28;20029;-71
2022/01/12 11:00:20;;;;;;;27.35;13.00;;;-3.60;77.90;;;;;;5033352;28;20079;-71
2022/01/12 11:02:50;;;;;;;32.15;15.60;;;-3.50;76.50;;;;;;5033417;28;20030;-71
2022/01/12 11:05:18;;;;;;;36.80;16.13;;;-3.40;76.80;;;;;;5033389;28;20030;-71
2022/01/12 11:07:43;;;;;;;28.33;12.23;;;-3.40;76.80;;;;;;5033317;28;20448;-71
2022/01/12 11:10:11;;;;;;;23.85;12.23;;;-3.30;75.20;;;;;;5044143;28;20059;-71
2022/01/12 11:12:37;;;;;;;27.60;13.43;;;-3.30;74.80;;;;;;5053118;28;20032;-72
2022/01/12 11:15:08;;;;;;;26.77;12.50;;;-3.30;74.40;;;;;;5052937;28;20052;-71
2022/01/12 11:17:34;;;;;;;21.77;12.05;;;-3.20;73.80;;;;;;5053063;28;20021;-71
2022/01/12 11:20:18;;;;;;;25.05;13.30;;;-3.10;73.90;;;;;;5052905;28;20021;-71
2022/01/12 11:23:07;;;;;;;26.48;12.43;;;-3.00;74.20;;;;;;5038102;28;20101;-71
2022/01/12 11:25:36;;;;;;;25.15;13.18;;;-3.00;73.80;;;;;;5042230;28;20025;-72
2022/01/12 11:28:15;;;;;;;33.65;14.48;;;-3.10;73.10;;;;;;5032900;28;20426;-71
2022/01/12 11:30:50;;;;;;;22.77;11.85;;;-3.00;73.30;;;;;;5015056;28;20021;-71
2022/01/12 11:33:16;;;;;;;26.48;13.75;;;-3.00;74.00;;;;;;5032867;28;20064;-71
2022/01/12 11:35:47;;;;;;;37.20;16.48;;;-3.00;74.40;;;;;;5032623;28;20029;-71
2022/01/12 11:38:29;;;;;;;34.17;17.60;;;-3.00;75.40;;;;;;5044094;28;20021;-71
2022/01/12 11:40:56;;;;;;;28.25;13.32;;;-3.00;76.00;;;;;;5067929;28;20031;-71
2022/01/12 11:43:25;;;;;;;24.27;12.32;;;-3.00;75.10;;;;;;5034607;28;20020;-71
2022/01/12 11:46:12;;;;;;;24.25;11.65;;;-3.00;74.50;;;;;;5034555;28;20028;-71
2022/01/12 11:48:42;;;;;;;21.98;11.27;;;-3.10;73.50;;;;;;5052351;28;20107;-72
2022/01/12 11:51:08;;;;;;;19.73;10.63;;;-3.10;73.50;;;;;;5034510;28;20031;-71
2022/01/12 11:53:55;;;;;;;27.05;11.68;;;-3.10;73.90;;;;;;5052234;28;20029;-72
2022/01/12 11:56:26;;;;;;;23.80;12.13;;;-3.00;74.90;;;;;;5052286;28;20017;-71
2022/01/12 11:59:12;;;;;;;24.60;11.82;;;-3.10;74.80;;;;;;5052638;28;20100;-72
2022/01/12 12:01:44;;;;;;;23.90;12.25;;;-3.20;76.00;;;;;;5037291;28;20025;-71
2022/01/12 12:04:22;;;;;;;20.85;10.73;;;-3.30;77.70;;;;;;5031961;28;20022;-71
2022/01/12 12:06:49;;;;;;;25.50;11.73;;;-3.40;77.80;;;;;;5032180;28;20025;-71
2022/01/12 12:09:18;;;;;;;32.55;14.50;;;-3.30;78.80;;;;;;5031784;28;20030;-71
2022/01/12 12:11:51;;;;;;;40.80;20.48;;;-3.40;79.30;;;;;;5031626;28;20025;-71
2022/01/12 12:14:18;;;;;;;105.35;45.15;;;-3.40;80.30;;;;;;5012461;28;20581;-71
2022/01/12 12:16:45;;;;;;;191.43;75.35;;;-3.40;80.80;;;;;;5030725;28;20068;-71
2022/01/12 12:19:11;;;;;;;91.05;39.35;;;-3.40;81.20;;;;;;5031873;28;20028;-72
2022/01/12 12:21:37;;;;;;;26.27;13.68;;;-3.30;81.50;;;;;;5014116;28;20025;-71
2022/01/12 12:24:09;;;;;;;35.78;17.75;;;-3.30;80.00;;;;;;5014111;28;20116;-72
2022/01/12 12:26:43;;;;;;;24.10;11.32;;;-3.30;79.90;;;;;;5031814;28;20097;-71
2022/01/12 12:29:09;;;;;;;33.05;14.63;;;-3.30;79.70;;;;;;5031759;28;20450;-71
2022/01/12 12:31:34;;;;;;;80.15;29.58;;;-3.30;79.50;;;;;;5031559;28;20075;-73
2022/01/12 12:34:05;;;;;;;53.78;30.40;;;-3.20;79.80;;;;;;5031617;28;20048;-72
2022/01/12 12:36:31;;;;;;;105.00;49.05;;;-3.20;79.10;;;;;;5013874;28;20058;-72
2022/01/12 12:39:09;;;;;;;72.72;28.40;;;-3.20;79.20;;;;;;5013830;28;20395;-72
2022/01/12 12:41:39;;;;;;;186.15;77.25;;;-3.40;78.70;;;;;;5031592;28;20024;-71
2022/01/12 12:44:07;;;;;;;45.55;22.23;;;-3.40;79.30;;;;;;5013999;28;20471;-71
2022/01/12 12:46:32;;;;;;;37.92;19.63;;;-3.30;79.60;;;;;;5031780;28;20056;-71
2022/01/12 12:48:58;;;;;;;33.63;15.40;;;-3.30;79.50;;;;;;5031354;28;20479;-72
2022/01/12 12:51:24;;;;;;;47.15;23.05;;;-3.40;79.10;;;;;;5035257;28;20025;-71
2022/01/12 12:53:54;;;;;;;34.78;14.60;;;-3.30;79.30;;;;;;5037302;28;20029;-71
2022/01/12 12:56:23;;;;;;;32.70;13.68;;;-3.30;79.20;;;;;;5018607;28;20115;-71
2022/01/12 12:58:50;;;;;;;26.52;12.50;;;-3.30;79.70;;;;;;5037022;28;20577;-71
2022/01/12 13:01:19;;;;;;;23.55;11.13;;;-3.20;80.20;;;;;;5036558;28;20021;-71
2022/01/12 13:03:50;;;;;;;25.30;12.00;;;-3.20;79.80;;;;;;5036687;28;20505;-71
2022/01/12 13:06:29;;;;;;;28.17;15.43;;;-3.10;79.70;;;;;;5035977;28;20028;-71
2022/01/12 13:09:03;;;;;;;26.67;13.90;;;-3.10;79.30;;;;;;5003688;28;20063;-71
2022/01/12 13:11:30;;;;;;;28.95;14.82;;;-3.10;79.20;;;;;;5035426;28;20029;-71
2022/01/12 13:14:01;;;;;;;23.42;11.50;;;-3.10;78.30;;;;;;5035881;28;20067;-71
2022/01/12 13:16:27;;;;;;;26.17;12.32;;;-3.10;78.20;;;;;;5038999;28;20029;-71
2022/01/12 13:19:20;;;;;;;25.83;13.05;;;-3.10;79.10;;;;;;5010644;28;20032;-71
2022/01/12 13:21:46;;;;;;;24.48;14.23;;;-3.00;79.30;;;;;;5040621;28;20036;-71
2022/01/12 13:24:12;;;;;;;27.83;12.23;;;-3.00;79.00;;;;;;5040092;28;20366;-71
2022/01/12 13:26:38;;;;;;;23.10;12.63;;;-2.90;79.00;;;;;;5040454;28;20017;-71
2022/01/12 13:29:11;;;;;;;27.17;12.98;;;-2.90;78.90;;;;;;5040644;28;20032;-72
2022/01/12 13:31:37;;;;;;;26.25;13.60;;;-2.90;78.00;;;;;;5039615;28;20021;-71
2022/01/12 13:34:05;;;;;;;24.42;13.93;;;-2.90;78.20;;;;;;5040509;28;20025;-72
2022/01/12 13:36:33;;;;;;;129.35;53.25;;;-2.80;78.20;;;;;;5039508;28;20128;-72
2022/01/12 13:39:08;;;;;;;540.63;229.63;;;-2.80;78.40;;;;;;5040795;28;20486;-71
2022/01/12 13:41:43;;;;;;;392.38;153.63;;;-2.90;77.90;;;;;;5041275;28;20031;-71
2022/01/12 13:44:15;;;;;;;291.90;87.80;;;-3.00;77.10;;;;;;5038860;28;20021;-71
2022/01/12 13:46:51;;;;;;;236.13;65.85;;;-3.10;77.40;;;;;;5041034;28;20033;-72
2022/01/12 13:51:53;;;;;;;91.88;34.78;;;-3.10;79.30;;;;;;5042394;28;20052;-72
2022/01/12 13:54:19;;;;;;;158.82;51.65;;;-3.00;80.20;;;;;;5040665;28;20086;-71
2022/01/12 13:56:46;;;;;;;79.90;26.20;;;-3.00;80.10;;;;;;5021399;28;20025;-72
2022/01/12 13:59:15;;;;;;;210.75;61.08;;;-3.10;80.30;;;;;;5042478;28;20048;-71
2022/01/12 14:01:42;;;;;;;149.05;58.25;;;-3.10;79.90;;;;;;5036920;28;20487;-71
2022/01/12 14:04:16;;;;;;;28.98;15.40;;;-3.30;80.40;;;;;;5042013;28;20032;-71
2022/01/12 14:06:46;;;;;;;35.55;14.80;;;-3.40;79.60;;;;;;5024164;28;20023;-71
2022/01/12 14:11:55;;;;;;;182.90;71.20;;;-3.40;80.50;;;;;;5041532;28;20028;-71
2022/01/12 14:14:22;;;;;;;453.08;187.30;;;-3.30;81.30;;;;;;5039472;28;20041;-71
2022/01/12 14:16:48;;;;;;;260.38;83.95;;;-3.40;82.20;;;;;;5041300;28;20044;-72
2022/01/12 14:19:14;;;;;;;130.65;48.72;;;-3.40;82.20;;;;;;5041606;28;20399;-71
2022/01/12 14:21:41;;;;;;;114.28;37.58;;;-3.40;82.80;;;;;;5039016;28;20021;-72
2022/01/12 14:24:11;;;;;;;50.72;21.52;;;-3.40;83.30;;;;;;5041446;28;20022;-72
2022/01/12 14:26:40;;;;;;;174.90;75.32;;;-3.50;83.50;;;;;;5041548;28;20014;-71